Latest Weather Observations for Aireys Inlet

IDV60801

Issued at 8:52 am EDT Tuesday 27 October 2020 (issued every 10 minutes, with the page automatically refreshed every 10 minutes)

About weather observations | Map of weather stations | Latest weather observations for VIC | Other Formats
Station Details ID: 090180 Name: AIREYS INLET Lat: -38.46 Lon: 144.09 Height: 105.0 m
Data from the previous 72 hours. | See also: Recent months at Aireys Inlet
Date/Time
EDT
Temp
°C
App
Temp
°C
Dew
Point
°C
Rel
Hum
%
Delta-T
°C
Wind Press
QNH
hPa
Press
MSL
hPa
Rain since
9am
mm
Dir  Spd
km/h
Gust
km/h
Spd
kts
Gust
kts
27/08:30am 12.5 7.3 7.4 71 2.5 E 24 44 13 24 - - 0.0
27/08:00am 12.5 7.0 7.4 71 2.5 E 26 41 14 22 - - 0.0
27/07:30am 12.3 7.2 7.8 74 2.2 E 24 43 13 23 - - 0.0
27/07:00am 11.8 6.3 7.7 76 2.0 E 26 41 14 22 - - 0.0
27/06:49am 11.7 5.6 6.8 72 2.3 E 28 50 15 27 - - 0.0
27/06:30am 11.6 6.1 7.5 76 2.0 ESE 26 44 14 24 - - 0.0
27/06:00am 12.0 6.0 7.1 72 2.4 ESE 28 48 15 26 - - 0.0
27/05:59am 12.0 6.0 7.1 72 2.4 ESE 28 48 15 26 - - 0.0
27/05:30am 11.9 6.3 7.2 73 2.3 E 26 44 14 24 - - 0.0
27/05:00am 11.9 6.8 7.6 75 2.1 E 24 44 13 24 - - 0.0
27/04:30am 11.8 6.5 8.3 79 1.7 ESE 26 44 14 24 - - 0.0
27/04:12am 11.9 6.0 7.6 75 2.1 ESE 28 46 15 25 - - 0.0
27/04:00am 11.9 6.4 7.6 75 2.1 ESE 26 50 14 27 - - 0.0
27/03:30am 11.9 6.8 7.6 75 2.1 ESE 24 48 13 26 - - 0.0
27/03:00am 11.9 6.5 8.0 77 1.9 ESE 26 41 14 22 - - 0.0
27/02:30am 12.0 6.9 7.5 74 2.2 ESE 24 43 13 23 - - 0.0
27/02:10am 11.9 5.9 7.2 73 2.3 ESE 28 48 15 26 - - 0.0
27/02:00am 11.9 6.4 7.6 75 2.1 E 26 41 14 22 - - 0.0
27/01:30am 11.6 6.5 7.5 76 2.0 ESE 24 37 13 20 - - 0.0
27/01:00am 11.7 6.2 7.4 75 2.1 ESE 26 46 14 25 - - 0.0
27/12:35am 11.8 5.9 7.3 74 2.2 ESE 28 52 15 28 - - 0.0
27/12:30am 11.8 6.1 6.9 72 2.4 ESE 26 52 14 28 - - 0.0
27/12:00am 11.9 6.4 7.4 74 2.2 ESE 26 46 14 25 - - 0.0
 
Date/Time
EDT
Temp
°C
App
Temp
°C
Dew
Point
°C
Rel
Hum
%
Delta-T
°C
Wind Press
QNH
hPa
Press
MSL
hPa
Rain since
9am
mm
Dir  Spd
km/h
Gust
km/h
Spd
kts
Gust
kts
26/11:45pm 12.0 6.0 7.1 72 2.4 ESE 28 48 15 26 - - 0.0
26/11:30pm 11.9 6.3 7.0 72 2.4 E 26 44 14 24 - - 0.0
26/11:20pm 11.9 5.9 7.0 72 2.4 E 28 50 15 27 - - 0.0
26/11:00pm 11.9 6.3 7.0 72 2.4 ESE 26 50 14 27 - - 0.0
26/10:33pm 11.9 5.8 6.4 69 2.6 E 28 46 15 25 - - 0.0
26/10:30pm 11.9 6.1 6.4 69 2.6 ESE 26 46 14 25 - - 0.0
26/10:00pm 11.8 5.7 6.5 70 2.5 E 28 50 15 27 - - 0.0
26/09:30pm 11.7 5.6 6.6 71 2.4 ESE 28 48 15 26 - - 0.0
26/09:00pm 12.0 5.5 6.3 68 2.7 ESE 30 48 16 26 - - 0.0
26/08:30pm 12.1 5.1 5.9 66 2.9 ESE 32 50 17 27 - - 0.0
26/08:00pm 12.0 5.8 6.1 67 2.8 ESE 28 50 15 27 - - 0.0
26/07:30pm 12.4 6.3 6.7 68 2.7 ESE 28 54 15 29 - - 0.0
26/07:00pm 12.5 6.1 5.4 62 3.3 ESE 28 52 15 28 - - 0.0
26/06:30pm 12.5 6.1 6.8 68 2.7 ESE 30 54 16 29 - - 0.0
26/06:03pm 12.7 6.5 6.3 65 3.1 ESE 28 50 15 27 - - 0.0
26/06:00pm 12.8 7.1 6.6 66 3.0 ESE 26 50 14 27 - - 0.0
26/05:30pm 12.8 6.6 6.2 64 3.1 ESE 28 52 15 28 - - 0.0
26/05:00pm 12.9 6.4 6.7 66 3.0 ESE 30 52 16 28 - - 0.0
26/04:30pm 13.2 6.7 6.3 63 3.3 SE 30 50 16 27 - - 0.0
26/04:10pm 13.2 7.2 7.0 66 3.0 SE 28 46 15 25 - - 0.0
26/04:00pm 13.7 8.6 7.5 66 3.1 SE 24 43 13 23 - - 0.0
26/03:30pm 13.4 7.3 6.7 64 3.2 SE 28 44 15 24 - - 0.0
26/03:20pm 13.5 7.4 6.4 62 3.4 ESE 28 46 15 25 - - 0.0
26/03:00pm 14.7 9.8 6.8 59 3.9 SE 22 41 12 22 - - 0.0
26/02:49pm 14.1 7.9 6.2 59 3.8 SE 28 46 15 25 - - 0.0
26/02:30pm 14.3 8.6 6.6 60 3.7 SE 26 44 14 24 - - 0.0
26/02:00pm 13.7 8.4 6.6 62 3.4 SE 24 43 13 23 - - 0.0
26/01:30pm 14.6 9.6 7.9 64 3.4 SE 24 44 13 24 - - 0.0
26/01:00pm 13.8 7.9 5.7 58 3.8 ESE 26 41 14 22 - - 0.0
26/12:30pm 13.9 7.9 5.5 57 4.0 ESE 26 43 14 23 - - 0.0
26/12:19pm 13.9 7.3 4.2 52 4.5 ESE 28 46 15 25 - - 0.0
26/12:00pm 14.3 8.7 5.4 55 4.2 ESE 24 39 13 21 - - 0.0
26/11:30am 14.1 8.5 5.2 55 4.2 ESE 24 39 13 21 - - 0.0
26/11:00am 13.3 7.7 5.2 58 3.8 ESE 24 39 13 21 - - 0.0
26/10:30am 13.0 7.3 4.7 57 3.8 ESE 24 39 13 21 - - 0.0
26/10:00am 13.2 8.3 5.1 58 3.8 ESE 20 35 11 19 - - 0.0
26/09:30am 12.1 6.0 4.8 61 3.4 ESE 26 41 14 22 - - 0.0
26/09:00am 12.8 7.5 4.8 58 3.7 ESE 22 41 12 22 - - 0.4
26/08:30am 12.1 6.2 4.1 58 3.6 ESE 24 41 13 22 - - 0.4
26/08:00am 11.3 6.5 5.4 67 2.7 ESE 20 37 11 20 - - 0.4
26/07:30am 11.3 5.4 3.8 60 3.3 ESE 24 39 13 21 - - 0.4
26/07:00am 11.1 5.8 4.8 65 2.9 ESE 22 39 12 21 - - 0.4
26/06:30am 11.1 5.4 5.0 66 2.8 ESE 24 43 13 23 - - 0.4
26/06:00am 11.0 5.5 4.2 63 3.1 ESE 22 41 12 22 - - 0.4
26/05:30am 10.9 5.6 4.8 66 2.8 ESE 22 35 12 19 - - 0.4
26/05:00am 11.0 6.1 5.1 67 2.7 ESE 20 37 11 20 - - 0.4
26/04:30am 10.9 5.5 4.6 65 2.9 ESE 22 35 12 19 - - 0.4
26/04:00am 10.9 5.6 4.8 66 2.8 ESE 22 39 12 21 - - 0.4
26/03:30am 10.9 5.5 4.4 64 2.9 ESE 22 39 12 21 - - 0.4
26/03:00am 10.9 5.0 4.1 63 3.0 ESE 24 43 13 23 - - 0.4
26/02:30am 11.0 5.1 4.0 62 3.1 ESE 24 39 13 21 - - 0.4
26/02:00am 11.2 5.4 4.4 63 3.1 ESE 24 41 13 22 - - 0.4
26/01:30am 11.3 5.4 4.1 61 3.2 E 24 39 13 21 - - 0.4
26/01:00am 11.4 4.7 3.9 60 3.4 E 28 44 15 24 - - 0.4
26/12:30am 11.5 6.2 5.2 65 2.9 ESE 22 37 12 20 - - 0.4
26/12:00am 11.4 6.2 5.3 66 2.8 ESE 22 37 12 20 - - 0.4
 
Date/Time
EDT
Temp
°C
App
Temp
°C
Dew
Point
°C
Rel
Hum
%
Delta-T
°C
Wind Press
QNH
hPa
Press
MSL
hPa
Rain since
9am
mm
Dir  Spd
km/h
Gust
km/h
Spd
kts
Gust
kts
25/11:30pm 11.0 6.6 6.4 73 2.2 ESE 19 32 10 17 - - 0.4
25/11:00pm 11.1 6.6 6.0 71 2.4 SE 19 33 10 18 - - 0.4
25/10:30pm 11.0 5.8 5.5 69 2.5 SE 22 37 12 20 - - 0.4
25/10:00pm 10.9 6.0 5.2 68 2.6 SE 20 35 11 19 - - 0.4
25/09:30pm 10.8 5.9 5.1 68 2.6 SE 20 37 11 20 - - 0.4
25/09:00pm 10.8 5.9 5.1 68 2.6 SE 20 35 11 19 - - 0.4
25/08:30pm 10.8 6.1 5.1 68 2.6 SE 19 32 10 17 - - 0.4
25/08:00pm 10.6 5.6 4.7 67 2.7 SE 20 32 11 17 - - 0.4
25/07:30pm 10.7 5.9 4.4 65 2.8 SE 19 32 10 17 - - 0.4
25/07:00pm 10.6 5.5 4.3 65 2.8 SE 20 33 11 18 - - 0.4
25/06:30pm 10.7 5.6 4.0 63 3.0 SE 20 37 11 20 - - 0.4
25/06:00pm 11.2 6.2 3.5 59 3.4 SE 19 33 10 18 - - 0.4
25/05:30pm 11.3 6.1 3.3 58 3.5 SE 20 35 11 19 - - 0.4
25/05:00pm 10.7 5.4 4.8 67 2.7 SSE 22 39 12 21 - - 0.4
25/04:30pm 11.3 6.4 5.2 66 2.8 SSE 20 35 11 19 - - 0.4
25/04:00pm 11.1 6.3 4.6 64 2.9 SSE 19 32 10 17 - - 0.4
25/03:30pm 11.0 6.2 4.5 64 2.9 SSE 19 33 10 18 - - 0.4
25/03:00pm 10.7 5.8 5.3 69 2.5 SE 20 35 11 19 - - 0.4
25/02:30pm 11.7 6.1 3.5 57 3.6 SSE 22 35 12 19 - - 0.2
25/02:00pm 11.8 6.2 3.6 57 3.7 SSE 22 35 12 19 - - 0.2
25/01:30pm 10.7 5.0 3.0 59 3.4 SSE 22 41 12 22 - - 0.2
25/01:00pm 9.1 3.5 5.3 77 1.7 SSE 24 37 13 20 - - 0.2
25/12:30pm 9.9 4.0 4.1 67 2.6 SSE 24 43 13 23 - - 0.0
25/12:00pm 11.4 5.0 3.4 58 3.5 SSE 26 41 14 22 - - 0.0
25/11:30am 12.5 6.5 3.5 54 4.0 SSE 24 37 13 20 - - 0.0
25/11:00am 10.9 3.9 1.7 53 3.9 SSE 28 52 15 28 - - 0.0
25/10:30am 10.0 2.0 1.4 55 3.6 SSE 33 54 18 29 - - 0.0
25/10:00am 10.3 1.3 0.3 50 4.1 S 37 57 20 31 - - 0.0
25/09:30am 9.7 1.2 1.1 55 3.6 SSE 35 54 19 29 - - 0.0
25/09:00am 9.2 1.8 1.9 60 3.1 S 30 54 16 29 - - 2.0
25/08:44am 9.1 1.2 2.0 61 3.0 S 33 52 18 28 - - 2.0
25/08:30am 9.3 1.3 0.7 55 3.5 S 32 44 17 24 - - 2.0
25/08:00am 8.9 1.8 1.3 59 3.1 S 28 48 15 26 - - 2.0
25/07:58am 8.8 1.7 1.2 59 3.1 S 28 48 15 26 - - 2.0
25/07:30am 8.7 0.6 0.9 58 3.2 S 33 48 18 26 - - 2.0
25/07:00am 8.1 2.1 1.0 61 2.9 SSE 22 39 12 21 - - 2.0
25/06:40am 8.6 0.7 1.1 59 3.1 S 32 50 17 27 - - 2.0
25/06:30am 8.5 0.2 -0.3 54 3.5 S 33 52 18 28 - - 2.0
25/06:00am 8.5 -0.2 -0.5 53 3.5 S 35 50 19 27 - - 2.0
25/05:30am 8.5 0.4 -0.3 54 3.5 S 32 48 17 26 - - 2.0
25/05:10am 8.4 0.3 -0.4 54 3.5 S 32 50 17 27 - - 2.0
25/05:00am 8.5 -0.4 -1.9 48 4.0 S 35 52 19 28 - - 2.0
25/04:43am 8.7 -0.1 -0.9 51 3.7 S 35 54 19 29 - - 2.0
25/04:30am 8.8 0.6 0.5 56 3.4 S 33 46 18 25 - - 2.0
25/04:00am 8.9 1.0 0.9 57 3.3 S 32 48 17 26 - - 2.0
25/03:38am 8.8 0.8 1.7 61 3.0 S 33 52 18 28 - - 2.0
25/03:30am 8.8 0.5 2.4 64 2.7 S 35 52 19 28 - - 2.0
25/03:00am 8.3 -0.4 1.7 63 2.7 SSW 37 61 20 33 - - 2.0
25/02:30am 8.8 -0.1 1.0 58 3.2 SSW 37 57 20 31 - - 2.0
25/02:00am 8.3 0.7 2.8 68 2.3 S 32 54 17 29 - - 2.0
25/01:59am 8.4 0.9 3.5 71 2.1 S 32 54 17 29 - - 2.0
25/01:30am 9.3 1.3 1.7 59 3.2 SSW 33 48 18 26 - - 2.0
25/01:06am 9.3 1.8 3.5 67 2.5 SSW 32 52 17 28 - - 2.0
25/01:00am 9.3 1.2 3.1 65 2.7 SSW 35 52 19 28 - - 2.0
25/12:30am 7.8 0.4 4.9 82 1.3 S 33 56 18 30 - - 2.0
25/12:00am 9.1 0.6 5.1 76 1.8 S 39 61 21 33 - - 1.8
 
Date/Time
EDT
Temp
°C
App
Temp
°C
Dew
Point
°C
Rel
Hum
%
Delta-T
°C
Wind Press
QNH
hPa
Press
MSL
hPa
Rain since
9am
mm
Dir  Spd
km/h
Gust
km/h
Spd
kts
Gust
kts
24/11:39pm 9.6 2.7 4.8 72 2.2 SSW 30 48 16 26 - - 1.8
24/11:30pm 9.4 1.9 4.4 71 2.2 SSW 33 50 18 27 - - 1.8
24/11:04pm 9.4 2.2 5.8 78 1.7 SSW 33 52 18 28 - - 1.8
24/11:00pm 9.6 3.0 6.0 78 1.7 SSW 30 43 16 23 - - 1.8
24/10:37pm 9.0 2.9 6.4 84 1.2 SSW 28 48 15 26 - - 1.8
24/10:30pm 8.4 4.2 7.3 93 0.5 SW 19 28 10 15 - - 1.8
24/10:00pm 9.1 3.6 5.7 79 1.6 SW 24 43 13 23 - - 0.6
24/09:42pm 9.6 3.2 5.4 75 1.9 SW 28 50 15 27 - - 0.6
24/09:30pm 9.5 3.5 5.5 76 1.8 SW 26 39 14 21 - - 0.6
24/09:00pm 9.2 4.4 4.6 73 2.1 WSW 19 28 10 15 - - 0.6
24/08:30pm 9.0 4.1 5.0 76 1.8 WSW 20 32 11 17 - - 0.6
24/08:00pm 9.5 4.7 4.7 72 2.2 SW 19 33 10 18 - - 0.4
24/07:30pm 10.1 5.1 3.4 63 2.9 WSW 19 24 10 13 - - 0.4
24/07:00pm 11.4 5.9 4.2 61 3.2 WSW 22 33 12 18 - - 0.4
24/06:30pm 11.7 6.4 5.1 64 3.0 WSW 22 33 12 18 - - 0.4
24/06:00pm 10.6 4.5 4.7 67 2.7 SW 26 37 14 20 - - 0.4
24/05:32pm 10.9 4.0 4.8 66 2.8 SW 30 48 16 26 - - 0.4
24/05:30pm 10.5 3.2 4.6 67 2.7 SW 32 48 17 26 - - 0.4
24/05:00pm 11.7 4.6 3.7 58 3.6 SW 30 46 16 25 - - 0.4
24/04:30pm 11.6 4.6 4.3 61 3.3 SW 30 43 16 23 - - 0.4
24/04:00pm 11.4 4.0 5.1 65 2.9 SSW 33 52 18 28 - - 0.4
24/03:34pm 12.8 5.6 5.2 60 3.5 SW 32 50 17 27 - - 0.4
24/03:30pm 12.3 4.9 5.0 61 3.4 SW 33 50 18 27 - - 0.4
24/03:00pm 11.8 3.3 5.0 63 3.1 SW 39 57 21 31 - - 0.4
24/02:44pm 11.9 3.5 5.5 65 3.0 SW 39 59 21 32 - - 0.4
24/02:30pm 12.6 4.7 6.4 66 3.0 SW 37 54 20 29 - - 0.4
24/02:00pm 11.6 4.8 7.9 78 1.8 SW 33 52 18 28 - - 0.4
24/01:58pm 11.6 5.6 8.6 82 1.5 SW 30 52 16 28 - - 0.4
24/01:30pm 11.6 5.8 9.3 86 1.2 SW 30 46 16 25 - - 0.4
24/01:00pm 10.9 4.7 9.2 89 0.9 SW 32 52 17 28 - - 0.4
24/12:54pm 10.5 4.9 8.8 89 0.8 SW 28 50 15 27 - - 0.4
24/12:30pm 12.4 6.6 8.1 75 2.1 SW 28 43 15 23 - - 0.0
24/12:00pm 11.6 5.9 8.5 81 1.5 SSW 28 43 15 23 - - 0.0
24/11:52am 11.1 5.5 8.7 85 1.2 SW 28 46 15 25 - - 0.0
24/11:30am 11.7 5.9 8.0 78 1.8 SW 28 41 15 22 - - 0.0
24/11:00am 12.0 6.3 8.3 78 1.8 SW 28 54 15 29 - - 0.0
24/10:30am 11.6 5.8 8.1 79 1.7 SW 28 46 15 25 - - 0.0
24/10:00am 12.7 6.9 7.8 72 2.4 SW 28 43 15 23 - - 0.0
24/09:30am 12.1 5.7 6.8 70 2.5 SW 30 43 16 23 - - 0.0
24/09:00am 11.4 6.7 7.9 79 1.7 SW 22 33 12 18 - - 17.6

Other formats

Comma delimited format used in spreadsheet applications
http://www.bom.gov.au/fwo/IDV60801/IDV60801.94846.axf

JavaScript Object Notation format (JSON) in row-major order
http://www.bom.gov.au/fwo/IDV60801/IDV60801.94846.json

Data quality

Most of these data are generated automatically and are frequently updated. Quality checks on data are not normally performed. It is possible for incorrect values to appear. Refer to information at About Latest Weather Observations and please check the disclaimer before using these data.